sensor_id;sensor_type;location;lat;lon;timestamp;pressure;altitude;pressure_sealevel;temperature;humidity
21109;BME280;10712;52.944;9.098;2023-01-31T00:01:36;101797.34;;;12.32;50.71
21109;BME280;10712;52.944;9.098;2023-01-31T00:04:06;101795.59;;;12.31;50.51
21109;BME280;10712;52.944;9.098;2023-01-31T00:06:36;101791.13;;;12.32;50.58
21109;BME280;10712;52.944;9.098;2023-01-31T00:09:05;101791.13;;;12.32;50.58
21109;BME280;10712;52.944;9.098;2023-01-31T00:11:32;101789.44;;;12.31;50.69
21109;BME280;10712;52.944;9.098;2023-01-31T00:13:59;101802.19;;;12.24;50.74
21109;BME280;10712;52.944;9.098;2023-01-31T00:16:25;101798.38;;;12.30;50.62
21109;BME280;10712;52.944;9.098;2023-01-31T00:18:51;101793.91;;;12.30;50.69
21109;BME280;10712;52.944;9.098;2023-01-31T00:21:23;101798.81;;;12.20;50.96
21109;BME280;10712;52.944;9.098;2023-01-31T00:23:50;101794.97;;;12.26;50.91
21109;BME280;10712;52.944;9.098;2023-01-31T00:28:49;101776.44;;;12.23;51.06
21109;BME280;10712;52.944;9.098;2023-01-31T00:31:19;101778.31;;;12.21;51.36
21109;BME280;10712;52.944;9.098;2023-01-31T00:33:49;101773.53;;;12.28;51.07
21109;BME280;10712;52.944;9.098;2023-01-31T00:36:20;101780.19;;;12.19;50.89
21109;BME280;10712;52.944;9.098;2023-01-31T00:38:51;101781.91;;;12.20;51.10
21109;BME280;10712;52.944;9.098;2023-01-31T00:41:20;101782.34;;;12.11;51.22
21109;BME280;10712;52.944;9.098;2023-01-31T00:43:47;101779.03;;;12.06;51.35
21109;BME280;10712;52.944;9.098;2023-01-31T00:46:12;101782.22;;;12.14;51.17
21109;BME280;10712;52.944;9.098;2023-01-31T00:48:39;101783.44;;;12.07;51.43
21109;BME280;10712;52.944;9.098;2023-01-31T00:51:05;101796.50;;;12.13;51.42
21109;BME280;10712;52.944;9.098;2023-01-31T00:53:32;101800.28;;;12.09;51.32
21109;BME280;10712;52.944;9.098;2023-01-31T00:58:30;101800.41;;;12.06;51.64
21109;BME280;10712;52.944;9.098;2023-01-31T01:01:10;101795.06;;;12.06;51.70
21109;BME280;10712;52.944;9.098;2023-01-31T01:03:37;101796.94;;;12.04;51.95
21109;BME280;10712;52.944;9.098;2023-01-31T01:06:05;101801.56;;;12.00;52.16
21109;BME280;10712;52.944;9.098;2023-01-31T01:08:31;101805.34;;;11.96;52.49
21109;BME280;10712;52.944;9.098;2023-01-31T01:11:05;101805.25;;;11.98;52.48
21109;BME280;10712;52.944;9.098;2023-01-31T01:13:31;101788.44;;;11.96;52.45
21109;BME280;10712;52.944;9.098;2023-01-31T01:16:03;101796.47;;;11.96;52.29
21109;BME280;10712;52.944;9.098;2023-01-31T01:18:29;101795.66;;;11.94;52.52
21109;BME280;10712;52.944;9.098;2023-01-31T01:20:54;101804.47;;;11.96;52.38
21109;BME280;10712;52.944;9.098;2023-01-31T01:23:20;101815.84;;;11.99;52.30
21109;BME280;10712;52.944;9.098;2023-01-31T01:25:46;101807.34;;;12.10;52.42
21109;BME280;10712;52.944;9.098;2023-01-31T01:28:12;101817.56;;;12.19;52.43
21109;BME280;10712;52.944;9.098;2023-01-31T01:30:38;101825.81;;;12.14;52.58
21109;BME280;10712;52.944;9.098;2023-01-31T01:33:05;101812.25;;;12.19;52.70
21109;BME280;10712;52.944;9.098;2023-01-31T01:35:30;101803.28;;;12.20;52.64
21109;BME280;10712;52.944;9.098;2023-01-31T01:37:56;101806.47;;;12.28;52.51
21109;BME280;10712;52.944;9.098;2023-01-31T01:40:22;101818.44;;;12.19;52.71
21109;BME280;10712;52.944;9.098;2023-01-31T01:42:48;101811.53;;;12.15;53.16
21109;BME280;10712;52.944;9.098;2023-01-31T01:45:14;101807.34;;;12.10;53.11
21109;BME280;10712;52.944;9.098;2023-01-31T01:48:02;101815.72;;;12.21;53.09
21109;BME280;10712;52.944;9.098;2023-01-31T01:50:49;101799.50;;;12.24;52.95
21109;BME280;10712;52.944;9.098;2023-01-31T01:53:19;101803.84;;;12.27;52.97
21109;BME280;10712;52.944;9.098;2023-01-31T01:56:00;101803.78;;;12.28;52.73
21109;BME280;10712;52.944;9.098;2023-01-31T01:58:38;101819.44;;;12.36;52.78
21109;BME280;10712;52.944;9.098;2023-01-31T02:01:08;101818.72;;;12.32;52.71
21109;BME280;10712;52.944;9.098;2023-01-31T02:03:37;101829.56;;;12.29;52.63
21109;BME280;10712;52.944;9.098;2023-01-31T02:06:05;101827.19;;;12.23;52.79
21109;BME280;10712;52.944;9.098;2023-01-31T02:08:35;101826.22;;;12.24;52.66
21109;BME280;10712;52.944;9.098;2023-01-31T02:11:24;101829.72;;;12.26;52.71
21109;BME280;10712;52.944;9.098;2023-01-31T02:14:00;101832.03;;;12.15;52.70
21109;BME280;10712;52.944;9.098;2023-01-31T02:16:26;101841.84;;;12.14;52.85
21109;BME280;10712;52.944;9.098;2023-01-31T02:18:53;101837.50;;;12.12;53.00
21109;BME280;10712;52.944;9.098;2023-01-31T02:36:48;101849.06;;;12.12;52.98
21109;BME280;10712;52.944;9.098;2023-01-31T02:42:22;101851.97;;;12.08;53.41
21109;BME280;10712;52.944;9.098;2023-01-31T02:45:19;101840.81;;;12.17;53.18
21109;BME280;10712;52.944;9.098;2023-01-31T02:48:02;101845.47;;;12.13;53.54
21109;BME280;10712;52.944;9.098;2023-01-31T02:53:19;101837.09;;;12.21;53.64
21109;BME280;10712;52.944;9.098;2023-01-31T02:55:57;101839.81;;;12.19;53.94
21109;BME280;10712;52.944;9.098;2023-01-31T03:01:35;101829.56;;;12.29;54.29
21109;BME280;10712;52.944;9.098;2023-01-31T03:04:07;101835.06;;;12.26;54.50
21109;BME280;10712;52.944;9.098;2023-01-31T03:09:13;101821.31;;;12.34;54.63
21109;BME280;10712;52.944;9.098;2023-01-31T03:20:28;101818.94;;;12.28;54.60
21109;BME280;10712;52.944;9.098;2023-01-31T03:23:04;101816.03;;;12.32;54.40
21109;BME280;10712;52.944;9.098;2023-01-31T03:25:34;101815.97;;;12.34;54.44
21109;BME280;10712;52.944;9.098;2023-01-31T03:28:07;101803.06;;;12.24;54.59
21109;BME280;10712;52.944;9.098;2023-01-31T03:30:43;101808.50;;;12.23;54.44
21109;BME280;10712;52.944;9.098;2023-01-31T03:33:20;101801.41;;;12.22;54.38
21109;BME280;10712;52.944;9.098;2023-01-31T03:36:43;101805.28;;;12.34;54.01
21109;BME280;10712;52.944;9.098;2023-01-31T03:38:56;101797.13;;;12.37;53.84
21109;BME280;10712;52.944;9.098;2023-01-31T03:47:33;101809.94;;;12.30;54.00
21109;BME280;10712;52.944;9.098;2023-01-31T03:50:06;101810.03;;;12.46;53.43
21109;BME280;10712;52.944;9.098;2023-01-31T03:52:42;101807.72;;;12.38;53.40
21109;BME280;10712;52.944;9.098;2023-01-31T03:55:16;101792.72;;;12.36;53.43
21109;BME280;10712;52.944;9.098;2023-01-31T03:57:49;101800.06;;;12.49;52.99
21109;BME280;10712;52.944;9.098;2023-01-31T04:00:20;101801.31;;;12.42;52.86
21109;BME280;10712;52.944;9.098;2023-01-31T04:03:18;101796.78;;;12.26;53.16
21109;BME280;10712;52.944;9.098;2023-01-31T04:05:45;101787.75;;;12.28;52.85
21109;BME280;10712;52.944;9.098;2023-01-31T04:08:14;101793.34;;;12.23;52.65
21109;BME280;10712;52.944;9.098;2023-01-31T04:10:43;101796.50;;;12.13;52.83
21109;BME280;10712;52.944;9.098;2023-01-31T04:13:09;101804.59;;;12.11;52.91
21109;BME280;10712;52.944;9.098;2023-01-31T04:15:34;101797.50;;;12.10;52.67
21109;BME280;10712;52.944;9.098;2023-01-31T04:18:00;101793.84;;;12.13;52.77
21109;BME280;10712;52.944;9.098;2023-01-31T04:20:26;101813.41;;;12.13;52.50
21109;BME280;10712;52.944;9.098;2023-01-31T04:22:52;101806.19;;;11.97;52.93
21109;BME280;10712;52.944;9.098;2023-01-31T04:25:18;101812.53;;;11.94;53.10
21109;BME280;10712;52.944;9.098;2023-01-31T04:27:44;101811.03;;;11.89;53.15
21109;BME280;10712;52.944;9.098;2023-01-31T04:30:10;101810.06;;;11.90;52.96
21109;BME280;10712;52.944;9.098;2023-01-31T04:32:36;101817.16;;;11.91;53.00
21109;BME280;10712;52.944;9.098;2023-01-31T04:35:02;101805.19;;;11.80;53.08
21109;BME280;10712;52.944;9.098;2023-01-31T04:37:28;101812.84;;;11.88;53.15
21109;BME280;10712;52.944;9.098;2023-01-31T04:39:54;101808.50;;;11.86;53.09
21109;BME280;10712;52.944;9.098;2023-01-31T04:42:20;101808.50;;;11.86;53.04
21109;BME280;10712;52.944;9.098;2023-01-31T04:44:45;101790.44;;;11.91;53.01
21109;BME280;10712;52.944;9.098;2023-01-31T04:47:11;101799.38;;;11.90;52.88
21109;BME280;10712;52.944;9.098;2023-01-31T04:49:37;101792.06;;;11.95;52.47
21109;BME280;10712;52.944;9.098;2023-01-31T04:52:03;101795.06;;;11.87;52.68
21109;BME280;10712;52.944;9.098;2023-01-31T04:54:29;101789.66;;;11.89;52.73
21109;BME280;10712;52.944;9.098;2023-01-31T04:56:54;101781.66;;;11.89;52.68
21109;BME280;10712;52.944;9.098;2023-01-31T04:59:20;101783.16;;;11.94;52.68
21109;BME280;10712;52.944;9.098;2023-01-31T05:01:46;101790.59;;;11.88;52.70
21109;BME280;10712;52.944;9.098;2023-01-31T05:04:12;101788.88;;;11.87;52.88
21109;BME280;10712;52.944;9.098;2023-01-31T05:06:38;101787.44;;;11.79;52.99
21109;BME280;10712;52.944;9.098;2023-01-31T05:09:03;101780.06;;;11.84;52.74
21109;BME280;10712;52.944;9.098;2023-01-31T05:11:29;101791.47;;;11.88;52.78
21109;BME280;10712;52.944;9.098;2023-01-31T05:13:55;101782.59;;;11.88;52.72
21109;BME280;10712;52.944;9.098;2023-01-31T05:16:21;101784.81;;;11.97;52.74
21109;BME280;10712;52.944;9.098;2023-01-31T05:18:46;101784.97;;;11.94;52.80
21109;BME280;10712;52.944;9.098;2023-01-31T05:21:15;101782.81;;;12.02;52.70
21109;BME280;10712;52.944;9.098;2023-01-31T05:23:41;101774.63;;;12.05;52.50
21109;BME280;10712;52.944;9.098;2023-01-31T05:26:07;101777.09;;;12.09;52.22
21109;BME280;10712;52.944;9.098;2023-01-31T05:28:32;101786.81;;;12.10;52.40
21109;BME280;10712;52.944;9.098;2023-01-31T05:31:05;101775.19;;;12.11;52.25
21109;BME280;10712;52.944;9.098;2023-01-31T05:33:31;101779.38;;;12.17;51.93
21109;BME280;10712;52.944;9.098;2023-01-31T05:35:58;101782.66;;;12.05;52.22
21109;BME280;10712;52.944;9.098;2023-01-31T05:38:24;101779.22;;;12.03;52.20
21109;BME280;10712;52.944;9.098;2023-01-31T05:40:51;101775.72;;;12.01;52.36
21109;BME280;10712;52.944;9.098;2023-01-31T05:43:17;101768.66;;;12.00;52.27
21109;BME280;10712;52.944;9.098;2023-01-31T05:45:43;101780.25;;;12.17;52.02
21109;BME280;10712;52.944;9.098;2023-01-31T05:48:10;101772.47;;;12.13;52.03
21109;BME280;10712;52.944;9.098;2023-01-31T05:50:36;101765.69;;;12.06;52.32
21109;BME280;10712;52.944;9.098;2023-01-31T05:53:07;101759.28;;;12.10;52.10
21109;BME280;10712;52.944;9.098;2023-01-31T05:55:34;101767.94;;;12.15;52.00
21109;BME280;10712;52.944;9.098;2023-01-31T05:57:59;101766.84;;;12.00;52.40
21109;BME280;10712;52.944;9.098;2023-01-31T06:00:25;101764.63;;;12.10;52.16
21109;BME280;10712;52.944;9.098;2023-01-31T06:02:51;101761.44;;;12.02;52.39
21109;BME280;10712;52.944;9.098;2023-01-31T06:05:17;101750.91;;;11.99;52.42
21109;BME280;10712;52.944;9.098;2023-01-31T06:07:43;101763.81;;;12.08;52.31
21109;BME280;10712;52.944;9.098;2023-01-31T06:10:12;101746.69;;;12.12;52.17
21109;BME280;10712;52.944;9.098;2023-01-31T06:12:38;101747.19;;;12.20;52.36
21109;BME280;10712;52.944;9.098;2023-01-31T06:15:04;101755.19;;;12.20;51.89
21109;BME280;10712;52.944;9.098;2023-01-31T06:17:30;101749.78;;;12.21;52.15
21109;BME280;10712;52.944;9.098;2023-01-31T06:19:56;101739.31;;;12.17;51.96
21109;BME280;10712;52.944;9.098;2023-01-31T06:22:21;101742.94;;;12.16;52.15
21109;BME280;10712;52.944;9.098;2023-01-31T06:24:47;101739.78;;;12.08;52.33
21109;BME280;10712;52.944;9.098;2023-01-31T06:27:13;101737.03;;;12.09;52.46
21109;BME280;10712;52.944;9.098;2023-01-31T06:29:39;101736.50;;;12.20;52.27
21109;BME280;10712;52.944;9.098;2023-01-31T06:32:05;101738.06;;;12.24;52.25
21109;BME280;10712;52.944;9.098;2023-01-31T06:34:30;101727.78;;;12.16;52.24
21109;BME280;10712;52.944;9.098;2023-01-31T06:36:56;101728.97;;;12.28;51.88
21109;BME280;10712;52.944;9.098;2023-01-31T06:39:23;101722.63;;;12.31;51.90
21109;BME280;10712;52.944;9.098;2023-01-31T06:41:49;101724.44;;;12.30;51.79
21109;BME280;10712;52.944;9.098;2023-01-31T06:44:15;101719.09;;;12.30;51.95
21109;BME280;10712;52.944;9.098;2023-01-31T06:46:41;101712.16;;;12.26;51.97
21109;BME280;10712;52.944;9.098;2023-01-31T06:49:06;101713.81;;;12.29;51.90
21109;BME280;10712;52.944;9.098;2023-01-31T06:51:32;101710.28;;;12.28;52.02
21109;BME280;10712;52.944;9.098;2023-01-31T06:53:58;101700.22;;;12.33;51.97
21109;BME280;10712;52.944;9.098;2023-01-31T06:56:24;101684.41;;;12.29;51.96
21109;BME280;10712;52.944;9.098;2023-01-31T06:58:50;101679.63;;;12.35;52.11
21109;BME280;10712;52.944;9.098;2023-01-31T07:01:16;101670.34;;;12.42;51.96
21109;BME280;10712;52.944;9.098;2023-01-31T07:03:41;101668.16;;;12.50;51.79
21109;BME280;10712;52.944;9.098;2023-01-31T07:06:08;101672.41;;;12.37;51.89
21109;BME280;10712;52.944;9.098;2023-01-31T07:08:36;101663.28;;;12.41;52.04
21109;BME280;10712;52.944;9.098;2023-01-31T07:11:03;101656.19;;;12.40;51.96
21109;BME280;10712;52.944;9.098;2023-01-31T07:13:29;101647.56;;;12.35;52.29
21109;BME280;10712;52.944;9.098;2023-01-31T07:15:56;101645.41;;;12.59;51.88
21109;BME280;10712;52.944;9.098;2023-01-31T07:18:22;101654.16;;;12.45;52.05
21109;BME280;10712;52.944;9.098;2023-01-31T07:20:49;101650.72;;;12.43;52.11
21109;BME280;10712;52.944;9.098;2023-01-31T07:23:15;101635.75;;;12.56;51.80
21109;BME280;10712;52.944;9.098;2023-01-31T07:25:41;101637.50;;;12.57;52.09
21109;BME280;10712;52.944;9.098;2023-01-31T07:28:07;101633.84;;;12.58;52.35
21109;BME280;10712;52.944;9.098;2023-01-31T07:30:32;101638.25;;;12.59;52.19
21109;BME280;10712;52.944;9.098;2023-01-31T07:32:59;101634.91;;;12.56;52.45
21109;BME280;10712;52.944;9.098;2023-01-31T07:35:27;101627.41;;;12.62;52.32
21109;BME280;10712;52.944;9.098;2023-01-31T07:37:53;101632.44;;;12.69;52.38
21109;BME280;10712;52.944;9.098;2023-01-31T07:40:19;101632.19;;;12.73;51.96
21109;BME280;10712;52.944;9.098;2023-01-31T07:42:45;101632.72;;;12.80;52.21
21109;BME280;10712;52.944;9.098;2023-01-31T07:45:14;101627.69;;;12.74;52.34
21109;BME280;10712;52.944;9.098;2023-01-31T07:47:40;101614.38;;;12.89;52.24
21109;BME280;10712;52.944;9.098;2023-01-31T07:50:08;101617.94;;;12.90;52.04
21109;BME280;10712;52.944;9.098;2023-01-31T07:52:34;101619.88;;;12.71;52.44
21109;BME280;10712;52.944;9.098;2023-01-31T07:55:00;101623.75;;;12.81;52.45
21109;BME280;10712;52.944;9.098;2023-01-31T07:57:26;101609.44;;;12.82;52.53
21109;BME280;10712;52.944;9.098;2023-01-31T07:59:55;101611.72;;;12.89;52.65
21109;BME280;10712;52.944;9.098;2023-01-31T08:02:20;101603.75;;;12.88;52.62
21109;BME280;10712;52.944;9.098;2023-01-31T08:05:05;101612.25;;;12.96;52.51
21109;BME280;10712;52.944;9.098;2023-01-31T08:07:31;101613.78;;;13.00;52.50
21109;BME280;10712;52.944;9.098;2023-01-31T08:09:57;101594.84;;;13.05;52.44
21109;BME280;10712;52.944;9.098;2023-01-31T08:12:22;101583.41;;;13.01;52.44
21109;BME280;10712;52.944;9.098;2023-01-31T08:14:48;101586.88;;;13.03;52.64
21109;BME280;10712;52.944;9.098;2023-01-31T08:17:14;101585.88;;;13.06;52.64
21109;BME280;10712;52.944;9.098;2023-01-31T08:19:40;101584.47;;;12.98;53.02
21109;BME280;10712;52.944;9.098;2023-01-31T08:22:05;101573.66;;;13.00;53.05
21109;BME280;10712;52.944;9.098;2023-01-31T08:24:32;101549.44;;;13.03;53.16
21109;BME280;10712;52.944;9.098;2023-01-31T08:26:59;101541.41;;;13.03;53.00
21109;BME280;10712;52.944;9.098;2023-01-31T08:29:25;101545.28;;;12.97;53.19
21109;BME280;10712;52.944;9.098;2023-01-31T08:31:52;101540.03;;;13.12;52.91
21109;BME280;10712;52.944;9.098;2023-01-31T08:34:18;101542.00;;;13.08;53.03
21109;BME280;10712;52.944;9.098;2023-01-31T08:36:44;101529.41;;;13.10;53.10
21109;BME280;10712;52.944;9.098;2023-01-31T08:39:10;101536.19;;;13.17;53.05
21109;BME280;10712;52.944;9.098;2023-01-31T08:41:38;101522.03;;;13.15;53.09
21109;BME280;10712;52.944;9.098;2023-01-31T08:44:05;101519.06;;;13.04;53.33
21109;BME280;10712;52.944;9.098;2023-01-31T08:46:34;101509.44;;;13.17;53.52
21109;BME280;10712;52.944;9.098;2023-01-31T08:49:02;101492.91;;;13.09;53.76
21109;BME280;10712;52.944;9.098;2023-01-31T08:51:29;101479.38;;;13.12;53.89
21109;BME280;10712;52.944;9.098;2023-01-31T08:53:54;101483.84;;;12.96;54.38
21109;BME280;10712;52.944;9.098;2023-01-31T08:56:21;101489.16;;;13.13;54.20
21109;BME280;10712;52.944;9.098;2023-01-31T08:58:51;101490.03;;;13.14;54.44
21109;BME280;10712;52.944;9.098;2023-01-31T09:01:20;101481.63;;;13.04;54.87
21109;BME280;10712;52.944;9.098;2023-01-31T09:03:47;101477.47;;;13.14;54.68
21109;BME280;10712;52.944;9.098;2023-01-31T09:06:18;101480.41;;;13.10;54.82
21109;BME280;10712;52.944;9.098;2023-01-31T09:08:44;101479.91;;;13.19;54.70
21109;BME280;10712;52.944;9.098;2023-01-31T09:11:12;101480.06;;;13.16;55.05
21109;BME280;10712;52.944;9.098;2023-01-31T09:13:42;101479.72;;;13.06;54.95
21109;BME280;10712;52.944;9.098;2023-01-31T09:16:11;101483.00;;;13.11;55.07
21109;BME280;10712;52.944;9.098;2023-01-31T09:18:39;101479.38;;;13.12;55.17
21109;BME280;10712;52.944;9.098;2023-01-31T09:21:12;101472.28;;;13.11;55.27
21109;BME280;10712;52.944;9.098;2023-01-31T09:23:39;101470.09;;;13.19;55.14
21109;BME280;10712;52.944;9.098;2023-01-31T09:26:06;101462.22;;;13.16;55.15
21109;BME280;10712;52.944;9.098;2023-01-31T09:28:32;101471.44;;;13.26;54.96
21109;BME280;10712;52.944;9.098;2023-01-31T09:31:04;101467.22;;;13.22;55.16
21109;BME280;10712;52.944;9.098;2023-01-31T09:33:31;101463.06;;;13.17;55.17
21109;BME280;10712;52.944;9.098;2023-01-31T09:38:27;101452.22;;;13.20;55.37
21109;BME280;10712;52.944;9.098;2023-01-31T09:40:55;101453.84;;;13.22;55.25
21109;BME280;10712;52.944;9.098;2023-01-31T09:43:29;101450.41;;;13.20;55.74
21109;BME280;10712;52.944;9.098;2023-01-31T09:46:01;101445.06;;;13.20;55.40
21109;BME280;10712;52.944;9.098;2023-01-31T09:48:33;101448.47;;;13.22;55.55
21109;BME280;10712;52.944;9.098;2023-01-31T09:51:04;101440.38;;;13.24;55.64
21109;BME280;10712;52.944;9.098;2023-01-31T09:53:35;101431.13;;;13.29;55.69
21109;BME280;10712;52.944;9.098;2023-01-31T09:58:55;101445.28;;;13.31;55.74
21109;BME280;10712;52.944;9.098;2023-01-31T10:01:39;101444.56;;;13.28;55.83
21109;BME280;10712;52.944;9.098;2023-01-31T10:07:49;101415.84;;;13.31;55.97
21109;BME280;10712;52.944;9.098;2023-01-31T10:10:42;101408.31;;;13.38;55.95
21109;BME280;10712;52.944;9.098;2023-01-31T10:13:29;101404.84;;;13.36;56.10
21109;BME280;10712;52.944;9.098;2023-01-31T10:18:37;101389.81;;;13.19;56.92
21109;BME280;10712;52.944;9.098;2023-01-31T10:21:08;101399.13;;;13.42;56.52
21109;BME280;10712;52.944;9.098;2023-01-31T10:23:41;101396.16;;;13.32;56.61
21109;BME280;10712;52.944;9.098;2023-01-31T10:26:19;101388.53;;;13.40;56.41
21109;BME280;10712;52.944;9.098;2023-01-31T10:29:03;101397.53;;;13.39;56.88
21109;BME280;10712;52.944;9.098;2023-01-31T10:31:56;101389.69;;;13.51;56.60
21109;BME280;10712;52.944;9.098;2023-01-31T10:40:04;101375.00;;;13.58;56.60
21109;BME280;10712;52.944;9.098;2023-01-31T10:42:37;101378.06;;;13.66;56.75
21109;BME280;10712;52.944;9.098;2023-01-31T10:48:19;101361.44;;;13.75;56.52
21109;BME280;10712;52.944;9.098;2023-01-31T10:54:25;101370.69;;;13.55;57.27
21109;BME280;10712;52.944;9.098;2023-01-31T10:56:54;101359.25;;;13.67;56.83
21109;BME280;10712;52.944;9.098;2023-01-31T10:59:27;101367.66;;;13.75;56.88
21109;BME280;10712;52.944;9.098;2023-01-31T11:01:54;101359.31;;;13.66;57.02
21109;BME280;10712;52.944;9.098;2023-01-31T11:04:31;101352.81;;;13.70;56.73
21109;BME280;10712;52.944;9.098;2023-01-31T11:07:00;101341.34;;;13.68;56.97
21109;BME280;10712;52.944;9.098;2023-01-31T11:09:33;101338.94;;;13.77;56.66
21109;BME280;10712;52.944;9.098;2023-01-31T11:12:04;101334.66;;;13.75;56.91
21109;BME280;10712;52.944;9.098;2023-01-31T11:14:30;101335.16;;;13.82;56.54
21109;BME280;10712;52.944;9.098;2023-01-31T11:17:06;101326.81;;;13.86;56.47
21109;BME280;10712;52.944;9.098;2023-01-31T11:19:52;101322.13;;;13.90;56.45
21109;BME280;10712;52.944;9.098;2023-01-31T11:22:32;101328.44;;;13.89;56.77
21109;BME280;10712;52.944;9.098;2023-01-31T11:25:01;101315.16;;;13.87;56.62
21109;BME280;10712;52.944;9.098;2023-01-31T11:27:42;101321.53;;;13.70;57.02
21109;BME280;10712;52.944;9.098;2023-01-31T11:30:34;101318.69;;;13.88;56.55
21109;BME280;10712;52.944;9.098;2023-01-31T11:33:02;101321.28;;;13.89;56.72
21109;BME280;10712;52.944;9.098;2023-01-31T11:35:32;101321.63;;;13.83;56.96
21109;BME280;10712;52.944;9.098;2023-01-31T11:38:23;101317.81;;;13.87;57.05
21109;BME280;10712;52.944;9.098;2023-01-31T11:40:49;101314.97;;;13.76;57.40
21109;BME280;10712;52.944;9.098;2023-01-31T11:45:52;101299.63;;;13.92;57.15
21109;BME280;10712;52.944;9.098;2023-01-31T11:48:30;101293.72;;;14.01;56.78
21109;BME280;10712;52.944;9.098;2023-01-31T11:51:00;101286.81;;;13.97;57.14
21109;BME280;10712;52.944;9.098;2023-01-31T11:53:45;101290.34;;;13.98;57.03
21109;BME280;10712;52.944;9.098;2023-01-31T11:56:17;101285.59;;;13.89;57.67
21109;BME280;10712;52.944;9.098;2023-01-31T11:58:47;101288.75;;;13.95;57.67
21109;BME280;10712;52.944;9.098;2023-01-31T12:01:16;101288.53;;;13.98;57.92
21109;BME280;10712;52.944;9.098;2023-01-31T12:03:58;101291.59;;;13.92;58.23
21109;BME280;10712;52.944;9.098;2023-01-31T12:09:01;101291.66;;;14.19;57.74
21109;BME280;10712;52.944;9.098;2023-01-31T12:11:33;101282.59;;;14.07;58.04
21109;BME280;10712;52.944;9.098;2023-01-31T12:14:22;101276.69;;;14.02;58.00
21109;BME280;10712;52.944;9.098;2023-01-31T12:16:54;101273.78;;;14.05;57.97
21109;BME280;10712;52.944;9.098;2023-01-31T12:19:37;101273.78;;;14.05;58.14
21109;BME280;10712;52.944;9.098;2023-01-31T12:22:19;101271.69;;;14.10;58.16
21109;BME280;10712;52.944;9.098;2023-01-31T12:28:20;101267.34;;;14.22;57.97
21109;BME280;10712;52.944;9.098;2023-01-31T12:36:57;101266.34;;;14.10;58.45
21109;BME280;10712;52.944;9.098;2023-01-31T12:39:58;101276.84;;;14.13;58.37
21109;BME280;10712;52.944;9.098;2023-01-31T12:42:59;101269.75;;;14.12;58.46
21109;BME280;10712;52.944;9.098;2023-01-31T12:57:32;101258.34;;;14.23;58.77
21109;BME280;10712;52.944;9.098;2023-01-31T13:03:48;101241.63;;;14.05;59.36
21109;BME280;10712;52.944;9.098;2023-01-31T13:06:25;101245.94;;;14.08;59.27
21109;BME280;10712;52.944;9.098;2023-01-31T13:14:40;101232.41;;;14.38;58.68
21109;BME280;10712;52.944;9.098;2023-01-31T13:17:13;101226.06;;;14.39;58.72
21109;BME280;10712;52.944;9.098;2023-01-31T13:19:50;101223.56;;;14.36;58.93
21109;BME280;10712;52.944;9.098;2023-01-31T13:22:26;101213.03;;;14.33;58.96
21109;BME280;10712;52.944;9.098;2023-01-31T13:28:01;101220.72;;;14.25;59.23
21109;BME280;10712;52.944;9.098;2023-01-31T13:30:42;101220.09;;;14.48;58.43
21109;BME280;10712;52.944;9.098;2023-01-31T13:36:36;101208.94;;;14.54;58.26
21109;BME280;10712;52.944;9.098;2023-01-31T13:39:15;101212.03;;;14.48;58.34
21109;BME280;10712;52.944;9.098;2023-01-31T13:41:43;101205.47;;;14.39;58.57
21109;BME280;10712;52.944;9.098;2023-01-31T13:44:13;101194.22;;;14.47;58.49
21109;BME280;10712;52.944;9.098;2023-01-31T13:46:55;101198.09;;;14.43;58.73
21109;BME280;10712;52.944;9.098;2023-01-31T13:49:32;101203.03;;;14.49;58.47
21109;BME280;10712;52.944;9.098;2023-01-31T13:52:20;101200.72;;;14.57;58.26
21109;BME280;10712;52.944;9.098;2023-01-31T13:54:53;101193.38;;;14.46;58.67
21109;BME280;10712;52.944;9.098;2023-01-31T13:57:28;101185.91;;;14.51;58.31
21109;BME280;10712;52.944;9.098;2023-01-31T14:00:36;101191.47;;;14.48;58.52
21109;BME280;10712;52.944;9.098;2023-01-31T14:03:15;101182.34;;;14.51;58.46
21109;BME280;10712;52.944;9.098;2023-01-31T14:13:46;101168.00;;;14.52;58.86
21109;BME280;10712;52.944;9.098;2023-01-31T14:16:35;101168.72;;;14.54;58.69
21109;BME280;10712;52.944;9.098;2023-01-31T14:30:10;101183.34;;;14.63;58.73
21109;BME280;10712;52.944;9.098;2023-01-31T14:32:45;101182.47;;;14.62;58.82
21109;BME280;10712;52.944;9.098;2023-01-31T14:43:50;101160.84;;;14.65;58.95
21109;BME280;10712;52.944;9.098;2023-01-31T14:49:20;101185.69;;;14.67;58.98
21109;BME280;10712;52.944;9.098;2023-01-31T14:52:17;101187.00;;;14.74;59.03
21109;BME280;10712;52.944;9.098;2023-01-31T14:57:32;101198.31;;;14.52;60.04
21109;BME280;10712;52.944;9.098;2023-01-31T15:00:17;101185.50;;;14.70;59.68
21109;BME280;10712;52.944;9.098;2023-01-31T15:03:03;101191.63;;;14.85;59.24
21109;BME280;10712;52.944;9.098;2023-01-31T15:13:50;101162.34;;;14.94;59.17
21109;BME280;10712;52.944;9.098;2023-01-31T15:16:23;101163.84;;;14.98;59.03
21109;BME280;10712;52.944;9.098;2023-01-31T15:19:06;101156.34;;;15.04;58.90
21109;BME280;10712;52.944;9.098;2023-01-31T15:26:56;101165.78;;;14.96;59.01
21109;BME280;10712;52.944;9.098;2023-01-31T15:29:31;101178.84;;;14.88;59.06
21109;BME280;10712;52.944;9.098;2023-01-31T15:32:17;101185.75;;;14.92;58.68
21109;BME280;10712;52.944;9.098;2023-01-31T15:35:05;101188.44;;;14.92;58.68
21109;BME280;10712;52.944;9.098;2023-01-31T15:37:34;101171.56;;;14.90;58.74
21109;BME280;10712;52.944;9.098;2023-01-31T15:40:22;101166.41;;;14.87;58.51
21109;BME280;10712;52.944;9.098;2023-01-31T15:42:50;101188.53;;;15.16;57.52
21109;BME280;10712;52.944;9.098;2023-01-31T15:45:23;101185.75;;;14.92;58.35
21109;BME280;10712;52.944;9.098;2023-01-31T15:48:00;101189.81;;;15.11;57.59
21109;BME280;10712;52.944;9.098;2023-01-31T15:50:30;101186.81;;;15.03;57.48